CHB6436 ZSHC-ZUCK
Flight info
| Callsign | CHB6436 |
|---|---|
| Flight time | N/A |
| Altitude | 32100 |
| Route | NIVIK5E NIVIK W135 DOGVI W545 VEMEX W73 MADUK W51 LEGIV W164 ADGOL W50 XSH W80 ESKAM/K0863S1040 W80 IRPOG IRPOG4F |
| Aircraft | A320/M-SDE3FGHIRWY/LB1 |
Departure
| Time | 2026-04-29 09:40 |
|---|---|
| Airport | Hangzhou Xiaoshan International Airport (ZSHC) |
Arrival
| Time | N/A |
|---|---|
| Airport | Chongqing Jiangbei International Airport (ZUCK) |
| Time | Latitude | Longitude | Altitude | Speed | Heading |
|---|---|---|---|---|---|
| 2026-04-29 09:20 | 30.24346 | 120.43109 | 32 ft | 0 kts | 154° |
| 2026-04-29 09:30 | 30.24352 | 120.43105 | 30 ft | 4 kts | 154° |
| 2026-04-29 09:30 | 30.24376 | 120.43091 | 30 ft | 4 kts | 154° |
| 2026-04-29 09:30 | 30.24399 | 120.43078 | 30 ft | 4 kts | 161° |
| 2026-04-29 09:30 | 30.24423 | 120.43076 | 30 ft | 4 kts | 208° |
| 2026-04-29 09:31 | 30.24442 | 120.43097 | 30 ft | 4 kts | 240° |
| 2026-04-29 09:31 | 30.24449 | 120.43112 | 29 ft | 0 kts | 243° |
| 2026-04-29 09:33 | 30.24447 | 120.43108 | 29 ft | 4 kts | 243° |
| 2026-04-29 09:34 | 30.24422 | 120.43051 | 32 ft | 7 kts | 243° |
| 2026-04-29 09:34 | 30.24400 | 120.43000 | 32 ft | 9 kts | 243° |
| 2026-04-29 09:34 | 30.24378 | 120.42949 | 32 ft | 5 kts | 243° |
| 2026-04-29 09:34 | 30.24352 | 120.42889 | 32 ft | 12 kts | 243° |
| 2026-04-29 09:35 | 30.24343 | 120.42810 | 30 ft | 11 kts | 304° |
| 2026-04-29 09:35 | 30.24424 | 120.42761 | 31 ft | 13 kts | 333° |
| 2026-04-29 09:35 | 30.24452 | 120.42684 | 31 ft | 10 kts | 245° |
| 2026-04-29 09:35 | 30.24415 | 120.42607 | 31 ft | 13 kts | 245° |
| 2026-04-29 09:36 | 30.24380 | 120.42524 | 31 ft | 9 kts | 242° |
| 2026-04-29 09:36 | 30.24347 | 120.42453 | 32 ft | 12 kts | 242° |
| 2026-04-29 09:36 | 30.24297 | 120.42339 | 32 ft | 18 kts | 243° |
| 2026-04-29 09:36 | 30.24244 | 120.42219 | 32 ft | 16 kts | 243° |
| 2026-04-29 09:37 | 30.24187 | 120.42088 | 32 ft | 18 kts | 244° |
| 2026-04-29 09:37 | 30.24137 | 120.41972 | 32 ft | 14 kts | 242° |
| 2026-04-29 09:37 | 30.24075 | 120.41840 | 32 ft | 24 kts | 243° |
| 2026-04-29 09:37 | 30.24004 | 120.41676 | 32 ft | 22 kts | 243° |
| 2026-04-29 09:38 | 30.23931 | 120.41513 | 32 ft | 26 kts | 243° |
| 2026-04-29 09:38 | 30.23838 | 120.41303 | 32 ft | 32 kts | 242° |
| 2026-04-29 09:38 | 30.23742 | 120.41084 | 32 ft | 30 kts | 243° |
| 2026-04-29 09:38 | 30.23689 | 120.40943 | 32 ft | 12 kts | 272° |
| 2026-04-29 09:39 | 30.23734 | 120.40899 | 32 ft | 8 kts | 333° |
| 2026-04-29 09:39 | 30.23828 | 120.40859 | 34 ft | 17 kts | 12° |
| 2026-04-29 09:39 | 30.23862 | 120.40925 | 34 ft | 7 kts | 61° |
| 2026-04-29 09:39 | 30.23937 | 120.41094 | 33 ft | 54 kts | 63° |
| 2026-04-29 09:40 | 30.24208 | 120.41705 | 32 ft | 113 kts | 63° |
| 2026-04-29 09:40 | 30.24640 | 120.42678 | 32 ft | 157 kts | 62° |
| 2026-04-29 09:40 | 30.25144 | 120.43857 | 527 ft | 165 kts | 60° |
| 2026-04-29 09:40 | 30.25659 | 120.45032 | 1305 ft | 163 kts | 58° |
| 2026-04-29 09:41 | 30.26178 | 120.46198 | 1951 ft | 166 kts | 59° |
| 2026-04-29 09:41 | 30.26739 | 120.47446 | 2206 ft | 186 kts | 60° |
| 2026-04-29 09:41 | 30.27377 | 120.48863 | 2467 ft | 211 kts | 60° |
| 2026-04-29 09:41 | 30.28089 | 120.50456 | 2875 ft | 232 kts | 62° |
| 2026-04-29 09:42 | 30.28840 | 120.52151 | 3592 ft | 241 kts | 61° |
| 2026-04-29 09:42 | 30.29615 | 120.53901 | 4379 ft | 247 kts | 62° |
| 2026-04-29 09:42 | 30.30404 | 120.55688 | 5231 ft | 251 kts | 61° |
| 2026-04-29 09:42 | 30.31205 | 120.57505 | 6023 ft | 256 kts | 61° |
| 2026-04-29 09:43 | 30.31967 | 120.59381 | 6802 ft | 261 kts | 70° |
| 2026-04-29 09:43 | 30.32126 | 120.61507 | 7449 ft | 274 kts | 98° |
| 2026-04-29 09:43 | 30.31397 | 120.63577 | 7812 ft | 284 kts | 127° |
| 2026-04-29 09:43 | 30.29881 | 120.65017 | 7882 ft | 284 kts | 153° |
| 2026-04-29 09:44 | 30.28105 | 120.66038 | 7886 ft | 285 kts | 154° |
| 2026-04-29 09:44 | 30.26324 | 120.67054 | 7887 ft | 285 kts | 154° |
| 2026-04-29 09:44 | 30.24547 | 120.68073 | 7887 ft | 285 kts | 154° |
| 2026-04-29 09:44 | 30.23387 | 120.68743 | 7887 ft | 285 kts | 153° |